DC15 weather

Steuart Office Pad Heliport
Washington, District of Columbia, United States

Public forecast

Using degrees Fahrenheit for public forecast. Weather courtesy of forecast.io.

METAR (pilot weather report)

Closest report is Ronald Reagan Washington National Airport, 6.8 nm (12.6 km) SSE. Retrieved 2019/05/19 20:52 UTC (58 minutes ago):

KDCA 192052Z 18013KT 10SM FEW045 FEW090 BKN250 29/21 A2990 RMK AO2 SLP124 T02940206 58026

TAF (pilot weather forecast)

Closest forecast is Ronald Reagan Washington National Airport, 6.8 nm (12.6 km) SSE. Retrieved 2019/05/19 18:45 UTC (3 hours ago):

TAF KDCA 191743Z 1918/2024 17007KT P6SM SCT060 FM192100 18011G20KT P6SM VCTS SCT060CB FM200300 20008KT P6SM SCT060 FM201500 23010G22KT P6SM BKN060